Hauptseite
METAR-TAF:

METAR-TAF

Flughäfen :

Seyresse

Dax, Frankreich

Breite: 43-41N, Länge: 001-04W, Höhe: 32 m

Beobachtung

Neuester Wetterbericht von vor 37 Minuten, um 11:00 UTC
Wind 4 kt aus Nordost, variierte zwischen Nord und Ost
Temperatur 25°C
Luftfeuchtigkeit 65%
Luftdruck 1021 hPa
Sichtweite 10 km oder mehr
Leicht bewölkt in der Höhe von 2000 ft

METAR: LFBY 191100Z 05004KT 010V090 9999 FEW020 25/18 Q1021

Zeit: 13:37 (11:37 UTC)

Prognose

Neuester Wetterbericht von vor 3 Stunden und 37 Minuten, um 08:00 UTC
Gültige Prognose vom 19 um 09 UTC bis 19 um 18 UTC
Wind 3 kt aus Ost
Sichtweite 10 km oder mehr
keine Wolken unter 1500 m und keine Kumulonimbus oder Gewitterwolken

TAF: LFBY 190800Z 1909/1918 10003KT CAVOK

Wetterbeobachtungen und Prognosen von mehr als 4000 Flughäfen (METAR und TAF Bericht).

Die verfügbaren Stationen werden durch gelbe und rote Markierungen auf der Karte dargestellt.

Führen Sie die Maus auf sie, um den Namen der Station zu sehen.

Darauf klicken, um die Beobachtung von Wetterbeobachtungen und Prognosen zu sehen.

Um die Karte zu ändern : klicken Sie auf den grünen Tasten mit einem schwarzen Kreuz Zum Vergrößern, auf den grünen Button mit einem Gedankenstrich zu verkleinern, oder auf die grünen Pfeile für benachbarte Karten.


METAR-TAF: